createdAt,value
2018-09-24T00:01:11.869Z,46.30
2018-09-24T00:03:40.180Z,46.40
2018-09-24T00:06:08.943Z,46.30
2018-09-24T00:08:37.296Z,46.40
2018-09-24T00:11:06.311Z,46.60
2018-09-24T00:13:34.992Z,46.30
2018-09-24T00:16:03.461Z,46.30
2018-09-24T00:18:31.936Z,46.20
2018-09-24T00:21:00.355Z,46.20
2018-09-24T00:23:28.696Z,46.30
2018-09-24T00:25:57.002Z,46.30
2018-09-24T00:28:25.444Z,46.30
2018-09-24T00:30:53.895Z,46.30
2018-09-24T00:33:22.333Z,46.30
2018-09-24T00:35:50.768Z,46.30
2018-09-24T00:38:19.113Z,46.30
2018-09-24T00:40:47.609Z,46.30
2018-09-24T00:43:18.949Z,46.30
2018-09-24T00:45:47.281Z,46.30
2018-09-24T00:48:15.609Z,46.30
2018-09-24T00:50:43.879Z,46.20
2018-09-24T00:53:12.184Z,46.30
2018-09-24T00:55:40.465Z,46.20
2018-09-24T00:58:08.839Z,46.20
2018-09-24T01:00:37.319Z,46.20
2018-09-24T01:03:05.794Z,46.20
2018-09-24T01:05:34.007Z,46.20
2018-09-24T01:08:02.517Z,46.20
2018-09-24T01:10:30.749Z,46.10
2018-09-24T01:12:59.158Z,46.10
2018-09-24T01:15:27.357Z,46.10
2018-09-24T01:17:55.695Z,46.00
2018-09-24T01:20:24.035Z,46.00
2018-09-24T01:22:52.493Z,45.90
2018-09-24T01:25:21.155Z,46.00
2018-09-24T01:27:49.475Z,46.00
2018-09-24T01:30:17.852Z,46.00
2018-09-24T01:32:46.106Z,46.60
2018-09-24T01:35:14.671Z,46.00
2018-09-24T01:37:43.122Z,46.00
2018-09-24T01:40:11.460Z,45.90
2018-09-24T01:42:39.822Z,46.00
2018-09-24T01:45:08.123Z,46.00
2018-09-24T01:47:36.452Z,45.90
2018-09-24T01:50:04.838Z,46.00
2018-09-24T01:52:33.313Z,46.00
2018-09-24T01:55:01.610Z,46.00
2018-09-24T01:57:29.902Z,46.00
2018-09-24T01:59:58.105Z,45.90
2018-09-24T02:02:26.286Z,46.00
2018-09-24T02:04:54.471Z,46.10
2018-09-24T02:07:22.646Z,45.90
2018-09-24T02:09:50.927Z,45.90
2018-09-24T02:12:19.130Z,45.80
2018-09-24T02:14:47.336Z,45.90
2018-09-24T02:17:17.870Z,45.80
2018-09-24T02:19:52.849Z,45.90
2018-09-24T02:22:26.133Z,45.90
2018-09-24T02:24:55.444Z,45.90
2018-09-24T02:27:23.592Z,45.90
2018-09-24T02:29:51.887Z,45.90
2018-09-24T02:32:20.573Z,46.00
2018-09-24T02:34:50.152Z,46.50
2018-09-24T02:37:18.754Z,45.90
2018-09-24T02:39:47.241Z,45.80
2018-09-24T02:42:15.636Z,45.90
2018-09-24T02:44:44.024Z,45.90
2018-09-24T02:47:12.371Z,46.00
2018-09-24T02:49:40.691Z,45.90
2018-09-24T02:52:09.191Z,45.90
2018-09-24T02:54:37.655Z,45.70
2018-09-24T02:57:06.153Z,45.70
2018-09-24T02:59:34.571Z,45.70
2018-09-24T03:02:03.161Z,45.70
2018-09-24T03:04:31.454Z,45.70
2018-09-24T03:06:59.871Z,45.80
2018-09-24T03:09:29.266Z,45.70
2018-09-24T03:11:57.703Z,45.80
2018-09-24T03:14:27.492Z,45.70
2018-09-24T03:16:55.833Z,45.80
2018-09-24T03:19:24.371Z,45.70
2018-09-24T03:21:52.694Z,45.70
2018-09-24T03:24:21.082Z,45.70
2018-09-24T03:26:49.358Z,45.70
2018-09-24T03:29:24.080Z,45.70
2018-09-24T03:31:52.903Z,45.60
2018-09-24T03:34:21.329Z,45.60
2018-09-24T03:36:49.996Z,45.60
2018-09-24T03:39:18.653Z,45.40
2018-09-24T03:41:46.957Z,45.50
2018-09-24T03:44:15.305Z,45.40
2018-09-24T03:46:43.701Z,45.40
2018-09-24T03:49:12.164Z,45.60
2018-09-24T03:51:40.424Z,45.40
2018-09-24T03:54:09.844Z,45.10
2018-09-24T03:56:38.196Z,45.20
2018-09-24T03:59:06.554Z,45.30
2018-09-24T04:01:34.975Z,45.30
2018-09-24T04:04:09.043Z,45.30
2018-09-24T04:06:43.043Z,45.40
2018-09-24T04:09:17.204Z,45.60
2018-09-24T04:11:51.171Z,46.40
2018-09-24T04:14:25.290Z,46.80
2018-09-24T04:16:59.292Z,47.10
2018-09-24T04:19:33.483Z,47.10
2018-09-24T04:22:07.412Z,47.50
2018-09-24T04:24:41.431Z,47.70
2018-09-24T04:27:15.424Z,47.80
2018-09-24T04:29:49.568Z,47.80
2018-09-24T04:32:23.410Z,47.90
2018-09-24T04:34:57.305Z,48.00
2018-09-24T04:37:31.257Z,48.00
2018-09-24T04:40:05.279Z,47.90
2018-09-24T04:42:39.266Z,47.70
2018-09-24T04:45:13.291Z,47.80
2018-09-24T04:47:47.323Z,47.80
2018-09-24T04:50:21.237Z,47.80
2018-09-24T04:52:55.236Z,47.70
2018-09-24T04:55:29.383Z,48.40
2018-09-24T04:58:03.547Z,48.30
2018-09-24T05:00:37.532Z,48.50
2018-09-24T05:03:11.590Z,48.60
2018-09-24T05:05:45.591Z,48.70
2018-09-24T05:08:19.695Z,48.70
2018-09-24T05:10:53.570Z,49.30
2018-09-24T05:13:27.541Z,48.80
2018-09-24T05:16:01.558Z,48.80
2018-09-24T05:18:35.759Z,49.40
2018-09-24T05:21:09.743Z,48.80
2018-09-24T05:23:43.701Z,48.90
2018-09-24T05:26:17.912Z,48.60
2018-09-24T05:28:51.998Z,49.00
2018-09-24T05:31:25.908Z,49.20
2018-09-24T05:33:59.974Z,49.20
2018-09-24T05:36:40.495Z,49.30
2018-09-24T05:39:14.632Z,49.30
2018-09-24T05:41:48.816Z,49.50
2018-09-24T05:44:23.022Z,49.30
2018-09-24T05:46:57.265Z,49.30
2018-09-24T05:49:31.450Z,49.30
2018-09-24T05:52:05.658Z,49.20
2018-09-24T05:54:39.660Z,48.70
2018-09-24T05:57:13.900Z,49.10
2018-09-24T05:59:49.617Z,49.20
2018-09-24T06:02:23.613Z,49.20
2018-09-24T06:04:57.673Z,49.20
2018-09-24T06:07:31.744Z,49.20
2018-09-24T06:10:05.788Z,49.80
2018-09-24T06:12:39.814Z,49.10
2018-09-24T06:15:13.825Z,49.10
2018-09-24T06:17:47.820Z,49.20
2018-09-24T06:20:21.858Z,49.20
2018-09-24T06:22:55.916Z,49.00
2018-09-24T06:25:29.866Z,49.80
2018-09-24T06:28:04.205Z,49.00
2018-09-24T06:30:38.269Z,49.20
2018-09-24T06:33:12.325Z,49.10
2018-09-24T06:35:46.496Z,49.10
2018-09-24T06:38:20.592Z,49.10
2018-09-24T06:40:54.669Z,49.10
2018-09-24T06:43:28.747Z,49.10
2018-09-24T06:46:02.762Z,49.10
2018-09-24T06:48:36.645Z,49.10
2018-09-24T06:51:10.840Z,49.10
2018-09-24T06:53:45.071Z,49.10
2018-09-24T06:56:19.127Z,49.00
2018-09-24T06:58:53.025Z,49.00
2018-09-24T07:01:27.000Z,49.80
2018-09-24T07:04:01.040Z,49.20
2018-09-24T07:06:35.153Z,49.10
2018-09-24T07:09:10.945Z,49.10
2018-09-24T07:11:44.973Z,49.10
2018-09-24T07:14:19.054Z,49.00
2018-09-24T07:16:53.029Z,49.00
2018-09-24T07:19:27.341Z,49.00
2018-09-24T07:22:01.443Z,49.00
2018-09-24T07:24:35.710Z,49.00
2018-09-24T07:27:09.689Z,49.20
2018-09-24T07:29:43.710Z,49.30
2018-09-24T07:32:17.807Z,49.30
2018-09-24T07:34:51.736Z,49.20
2018-09-24T07:37:25.721Z,49.20
2018-09-24T07:39:59.742Z,49.30
2018-09-24T07:42:33.727Z,49.10
2018-09-24T07:45:07.667Z,49.30
2018-09-24T07:47:41.580Z,49.30
2018-09-24T07:50:15.549Z,49.30
2018-09-24T07:52:49.451Z,49.20
2018-09-24T07:55:23.283Z,49.20
2018-09-24T07:57:57.326Z,49.20
2018-09-24T08:00:31.331Z,49.20
2018-09-24T08:03:05.396Z,49.90
2018-09-24T08:05:39.346Z,49.20
2018-09-24T08:08:13.462Z,49.20
2018-09-24T08:10:47.576Z,49.20
2018-09-24T08:13:21.607Z,49.20
2018-09-24T08:15:55.667Z,49.20
2018-09-24T08:18:29.859Z,49.20
2018-09-24T08:21:03.944Z,49.20
2018-09-24T08:23:37.876Z,49.10
2018-09-24T08:26:11.949Z,49.20
2018-09-24T08:28:46.043Z,49.20
2018-09-24T08:31:19.966Z,49.20
2018-09-24T08:33:54.061Z,49.20
2018-09-24T08:36:28.005Z,49.20
2018-09-24T08:39:02.097Z,49.20
2018-09-24T08:41:36.260Z,49.20
2018-09-24T08:44:10.358Z,49.30
2018-09-24T08:46:44.186Z,49.40
2018-09-24T08:49:18.240Z,49.30
2018-09-24T08:51:52.117Z,49.40
2018-09-24T08:54:26.257Z,50.00
2018-09-24T08:57:00.130Z,49.40
2018-09-24T08:59:34.152Z,49.40
2018-09-24T09:02:08.225Z,49.40
2018-09-24T09:04:42.302Z,49.50
2018-09-24T09:07:16.222Z,49.60
2018-09-24T09:09:50.304Z,49.50
2018-09-24T09:12:24.239Z,50.20
2018-09-24T09:14:58.117Z,49.60
2018-09-24T09:17:32.265Z,49.70
2018-09-24T09:20:06.454Z,49.60
2018-09-24T09:22:40.408Z,49.70
2018-09-24T09:25:14.653Z,49.50
2018-09-24T09:27:48.633Z,49.70
2018-09-24T09:30:22.711Z,49.70
2018-09-24T09:32:57.011Z,49.70
2018-09-24T09:35:31.024Z,49.70
2018-09-24T09:38:04.991Z,49.70
2018-09-24T09:40:39.057Z,49.70
2018-09-24T09:43:13.094Z,49.70
2018-09-24T09:45:47.421Z,49.80
2018-09-24T09:48:21.366Z,49.80
2018-09-24T09:50:55.391Z,49.70
2018-09-24T09:53:29.375Z,49.90
2018-09-24T09:56:03.526Z,50.00
2018-09-24T09:58:37.545Z,50.00
2018-09-24T10:01:12.080Z,50.00
2018-09-24T10:03:46.085Z,49.30
2018-09-24T10:06:20.352Z,49.80
2018-09-24T10:08:54.369Z,50.00
2018-09-24T10:11:28.400Z,49.90
2018-09-24T10:14:02.521Z,49.90
2018-09-24T10:16:36.488Z,49.90
2018-09-24T10:19:10.539Z,49.80
2018-09-24T10:21:44.512Z,49.80
2018-09-24T10:24:18.580Z,50.60
2018-09-24T10:26:52.517Z,49.90
2018-09-24T10:29:26.625Z,49.90
2018-09-24T10:32:00.673Z,50.00
2018-09-24T10:34:34.635Z,50.00
2018-09-24T10:37:08.504Z,50.00
2018-09-24T10:39:42.695Z,50.10
2018-09-24T10:42:16.960Z,50.10
2018-09-24T10:44:50.851Z,50.00
2018-09-24T10:47:24.741Z,50.00
2018-09-24T10:49:58.996Z,50.20
2018-09-24T10:52:32.976Z,50.10
2018-09-24T10:55:07.175Z,50.10
2018-09-24T10:57:41.222Z,50.20
2018-09-24T11:00:15.100Z,50.30
2018-09-24T11:02:49.152Z,50.30
2018-09-24T11:05:23.070Z,50.60
2018-09-24T11:07:57.351Z,50.60
2018-09-24T11:10:31.264Z,50.70
2018-09-24T11:13:05.517Z,50.70
2018-09-24T11:15:39.468Z,50.70
2018-09-24T11:18:13.653Z,50.60
2018-09-24T11:20:47.572Z,50.50
2018-09-24T11:23:21.484Z,50.60
2018-09-24T11:25:55.742Z,50.50
2018-09-24T11:28:29.715Z,50.40
2018-09-24T11:31:03.750Z,50.40
2018-09-24T11:33:37.795Z,50.40
2018-09-24T11:36:11.790Z,50.30
2018-09-24T11:38:45.776Z,50.30
2018-09-24T11:41:19.799Z,50.30
2018-09-24T11:43:53.887Z,50.30
2018-09-24T11:46:28.115Z,50.30
2018-09-24T11:49:02.105Z,50.20
2018-09-24T11:51:36.028Z,50.30
2018-09-24T11:54:09.723Z,50.40
2018-09-24T11:56:43.587Z,50.90
2018-09-24T11:59:17.521Z,50.80
2018-09-24T12:01:51.602Z,50.70
2018-09-24T12:04:25.703Z,50.50
2018-09-24T12:06:59.742Z,50.40
2018-09-24T12:10:06.953Z,50.30
2018-09-24T12:12:42.371Z,50.30
2018-09-24T12:15:18.035Z,50.40
2018-09-24T12:17:53.348Z,50.30
2018-09-24T12:20:28.853Z,50.30
2018-09-24T12:23:04.244Z,50.20
2018-09-24T12:25:39.615Z,50.20
2018-09-24T12:28:15.374Z,50.10
2018-09-24T12:30:50.695Z,50.10
2018-09-24T12:33:26.231Z,50.00
2018-09-24T12:36:01.633Z,49.90
2018-09-24T12:38:37.010Z,49.80
2018-09-24T12:41:12.390Z,49.80
2018-09-24T12:43:47.833Z,49.80
2018-09-24T12:46:23.451Z,49.70
2018-09-24T12:48:58.872Z,49.70
2018-09-24T12:51:34.367Z,50.40
2018-09-24T12:54:09.941Z,49.80
2018-09-24T12:56:45.461Z,49.70
2018-09-24T12:59:20.875Z,49.60
2018-09-24T13:01:56.235Z,49.60
2018-09-24T13:04:31.693Z,49.70
2018-09-24T13:07:07.104Z,49.60
2018-09-24T13:09:42.618Z,49.60
2018-09-24T13:12:17.996Z,49.60
2018-09-24T13:14:53.406Z,49.60
2018-09-24T13:17:28.719Z,49.60
2018-09-24T13:20:04.123Z,49.60
2018-09-24T13:22:39.712Z,49.50
2018-09-24T13:25:15.190Z,49.50
2018-09-24T13:27:50.752Z,49.50
2018-09-24T13:30:26.161Z,49.40
2018-09-24T13:33:01.562Z,49.40
2018-09-24T13:35:36.983Z,49.20
2018-09-24T13:38:12.457Z,49.20
2018-09-24T13:40:47.712Z,49.20
2018-09-24T13:43:23.164Z,49.20
2018-09-24T13:45:58.574Z,49.20
2018-09-24T13:48:34.238Z,49.20
2018-09-24T13:51:09.641Z,49.30
2018-09-24T13:53:45.015Z,49.40
2018-09-24T13:56:20.503Z,49.30
2018-09-24T13:58:56.045Z,49.30
2018-09-24T14:01:31.577Z,49.30
2018-09-24T14:04:07.075Z,49.30
2018-09-24T14:06:42.514Z,49.30
2018-09-24T14:09:18.012Z,49.30
2018-09-24T14:11:53.632Z,49.20
2018-09-24T14:14:29.151Z,49.20
2018-09-24T14:17:04.524Z,49.10
2018-09-24T14:19:40.002Z,49.10
2018-09-24T14:22:15.608Z,49.00
2018-09-24T14:24:51.211Z,48.90
2018-09-24T14:27:26.498Z,48.90
2018-09-24T14:30:02.081Z,49.00
2018-09-24T14:32:37.811Z,49.00
2018-09-24T14:35:13.223Z,49.00
2018-09-24T14:37:48.704Z,49.00
2018-09-24T14:40:24.249Z,49.10
2018-09-24T14:42:59.657Z,49.10
2018-09-24T14:45:35.163Z,49.10
2018-09-24T14:48:10.627Z,49.10
2018-09-24T14:50:46.148Z,49.10
2018-09-24T14:53:21.668Z,49.20
2018-09-24T14:55:57.129Z,49.20
2018-09-24T14:58:32.490Z,49.00
2018-09-24T15:01:08.021Z,49.10
2018-09-24T15:03:43.609Z,49.30
2018-09-24T15:06:18.999Z,49.00
2018-09-24T15:08:54.677Z,49.00
2018-09-24T15:11:30.142Z,49.00
2018-09-24T15:14:05.536Z,49.00
2018-09-24T15:16:40.960Z,49.00
2018-09-24T15:19:16.461Z,49.10
2018-09-24T15:21:51.840Z,49.00
2018-09-24T15:24:27.593Z,48.90
2018-09-24T15:27:03.214Z,49.00
2018-09-24T15:29:38.743Z,49.00
2018-09-24T15:32:14.422Z,49.00
2018-09-24T15:34:50.044Z,48.90
2018-09-24T15:37:25.932Z,48.90
2018-09-24T15:40:01.571Z,48.90
2018-09-24T15:42:37.174Z,48.80
2018-09-24T15:45:12.540Z,48.90
2018-09-24T15:47:48.017Z,48.80
2018-09-24T15:50:23.387Z,49.10
2018-09-24T15:52:59.286Z,49.00
2018-09-24T15:55:34.786Z,49.10
2018-09-24T15:58:10.107Z,49.30
2018-09-24T16:00:45.501Z,49.40
2018-09-24T16:03:20.848Z,49.50
2018-09-24T16:05:56.373Z,49.40
2018-09-24T16:08:31.879Z,49.20
2018-09-24T16:11:07.231Z,49.10
2018-09-24T16:13:42.566Z,49.10
2018-09-24T16:16:18.253Z,49.10
2018-09-24T16:18:53.570Z,49.10
2018-09-24T16:21:28.814Z,49.10
2018-09-24T16:24:04.123Z,49.10
2018-09-24T16:26:39.680Z,49.20
2018-09-24T16:29:15.413Z,49.10
2018-09-24T16:31:50.872Z,49.00
2018-09-24T16:34:26.314Z,49.10
2018-09-24T16:37:01.636Z,49.30
2018-09-24T16:39:36.951Z,49.40
2018-09-24T16:42:12.317Z,49.80
2018-09-24T16:44:47.671Z,49.80
2018-09-24T16:47:23.039Z,50.60
2018-09-24T16:49:58.647Z,50.40
2018-09-24T16:52:34.345Z,50.40
2018-09-24T16:55:09.736Z,50.80
2018-09-24T16:57:45.373Z,50.60
2018-09-24T17:00:20.790Z,50.00
2018-09-24T17:02:56.082Z,50.40
2018-09-24T17:05:31.352Z,50.50
2018-09-24T17:08:06.855Z,50.40
2018-09-24T17:10:42.298Z,50.40
2018-09-24T17:13:17.817Z,51.00
2018-09-24T17:15:53.525Z,50.30
2018-09-24T17:18:28.902Z,50.30
2018-09-24T17:21:04.348Z,50.30
2018-09-24T17:23:39.735Z,50.10
2018-09-24T17:26:15.115Z,50.10
2018-09-24T17:28:50.422Z,50.20
2018-09-24T17:31:25.894Z,49.80
2018-09-24T17:34:01.582Z,50.40
2018-09-24T17:36:36.991Z,50.70
2018-09-24T17:39:13.944Z,50.70
2018-09-24T17:41:49.428Z,50.90
2018-09-24T17:44:24.852Z,50.70
2018-09-24T17:47:00.312Z,51.30
2018-09-24T17:49:35.774Z,51.00
2018-09-24T17:52:11.309Z,51.10
2018-09-24T17:54:46.644Z,51.60
2018-09-24T17:57:22.099Z,51.20
2018-09-24T17:59:57.606Z,50.80
2018-09-24T18:02:32.909Z,51.00
2018-09-24T18:05:08.356Z,51.50
2018-09-24T18:07:43.716Z,50.90
2018-09-24T18:10:19.156Z,51.10
2018-09-24T18:12:54.374Z,50.80
2018-09-24T18:15:29.736Z,50.70
2018-09-24T18:18:05.481Z,50.60
2018-09-24T18:20:40.878Z,50.50
2018-09-24T18:23:16.381Z,50.30
2018-09-24T18:25:52.012Z,50.40
2018-09-24T18:28:27.617Z,50.10
2018-09-24T18:31:02.860Z,49.70
2018-09-24T18:33:38.301Z,49.50
2018-09-24T18:36:13.634Z,49.70
2018-09-24T18:38:49.275Z,49.70
2018-09-24T18:41:24.688Z,49.80
2018-09-24T18:44:00.183Z,49.90
2018-09-24T18:46:35.558Z,49.90
2018-09-24T18:49:10.882Z,49.80
2018-09-24T18:51:46.170Z,49.90
2018-09-24T18:54:21.568Z,49.80
2018-09-24T18:56:56.991Z,50.00
2018-09-24T18:59:32.436Z,50.00
2018-09-24T19:02:08.135Z,50.00
2018-09-24T19:04:43.555Z,50.20
2018-09-24T19:07:18.960Z,50.30
2018-09-24T19:09:54.616Z,49.90
2018-09-24T19:12:30.468Z,49.70
2018-09-24T19:15:05.738Z,49.70
2018-09-24T19:17:40.974Z,49.60
2018-09-24T19:20:16.260Z,49.90
2018-09-24T19:22:51.766Z,50.40
2018-09-24T19:25:27.228Z,50.20
2018-09-24T19:28:02.924Z,50.10
2018-09-24T19:30:38.380Z,49.50
2018-09-24T19:33:13.775Z,49.60
2018-09-24T19:35:49.288Z,49.50
2018-09-24T19:38:25.812Z,49.70
2018-09-24T19:41:03.372Z,49.70
2018-09-24T19:43:38.802Z,49.80
2018-09-24T19:46:14.277Z,49.70
2018-09-24T19:48:49.659Z,49.80
2018-09-24T19:51:25.287Z,50.50
2018-09-24T19:54:00.557Z,50.10
2018-09-24T19:56:36.120Z,50.10
2018-09-24T19:59:11.734Z,50.20
2018-09-24T20:01:47.214Z,50.30
2018-09-24T20:04:22.740Z,50.30
2018-09-24T20:06:58.352Z,50.10
2018-09-24T20:09:33.819Z,50.20
2018-09-24T20:12:09.277Z,50.50
2018-09-24T20:14:44.516Z,50.60
2018-09-24T20:17:19.988Z,50.50
2018-09-24T20:19:55.292Z,50.60
2018-09-24T20:22:31.070Z,50.70
2018-09-24T20:25:06.736Z,50.60
2018-09-24T20:27:41.572Z,50.30
2018-09-24T20:30:16.177Z,51.40
2018-09-24T20:32:50.931Z,51.50
2018-09-24T20:35:25.540Z,52.30
2018-09-24T20:38:00.036Z,52.00
2018-09-24T20:40:34.671Z,52.00
2018-09-24T20:43:09.189Z,52.30
2018-09-24T20:45:43.779Z,52.70
2018-09-24T20:48:18.509Z,52.60
2018-09-24T20:50:53.098Z,52.50
2018-09-24T20:53:27.717Z,52.50
2018-09-24T20:56:02.284Z,52.40
2018-09-24T20:58:36.801Z,52.50
2018-09-24T21:01:11.808Z,52.70
2018-09-24T21:03:46.506Z,52.50
2018-09-24T21:06:20.965Z,52.50
2018-09-24T21:08:56.250Z,52.40
2018-09-24T21:11:30.891Z,52.30
2018-09-24T21:14:05.524Z,52.20
2018-09-24T21:16:40.259Z,52.20
2018-09-24T21:19:15.013Z,52.10
2018-09-24T21:21:49.464Z,52.10
2018-09-24T21:24:24.136Z,52.40
2018-09-24T21:26:58.703Z,52.90
2018-09-24T21:29:33.225Z,52.70
2018-09-24T21:32:07.788Z,52.50
2018-09-24T21:34:42.591Z,52.00
2018-09-24T21:37:17.243Z,51.30
2018-09-24T21:39:51.775Z,51.20
2018-09-24T21:42:26.375Z,50.60
2018-09-24T21:45:00.916Z,50.90
2018-09-24T21:47:35.446Z,50.60
2018-09-24T21:50:09.960Z,50.50
2018-09-24T21:52:44.455Z,50.20
2018-09-24T21:55:19.208Z,50.10
2018-09-24T21:57:53.925Z,49.60
2018-09-24T22:00:28.568Z,49.50
2018-09-24T22:03:03.428Z,49.40
2018-09-24T22:05:38.168Z,50.20
2018-09-24T22:08:12.867Z,49.40
2018-09-24T22:10:47.416Z,49.20
2018-09-24T22:13:21.903Z,49.30
2018-09-24T22:15:56.364Z,49.30
2018-09-24T22:18:30.939Z,49.00
2018-09-24T22:21:05.565Z,48.90
2018-09-24T22:23:40.072Z,48.80
2018-09-24T22:26:14.546Z,48.70
2018-09-24T22:28:49.127Z,48.60
2018-09-24T22:31:23.890Z,48.60
2018-09-24T22:33:58.470Z,48.60
2018-09-24T22:36:32.993Z,48.60
2018-09-24T22:39:07.448Z,48.40
2018-09-24T22:41:42.051Z,48.30
2018-09-24T22:44:16.660Z,48.30
2018-09-24T22:46:51.149Z,48.00
2018-09-24T22:49:25.712Z,47.90
2018-09-24T22:52:00.372Z,47.90
2018-09-24T22:54:34.931Z,47.90
2018-09-24T22:57:09.372Z,47.60
2018-09-24T22:59:43.881Z,47.70
2018-09-24T23:02:18.404Z,47.50
2018-09-24T23:04:53.063Z,47.90
2018-09-24T23:07:27.708Z,47.60
2018-09-24T23:10:02.185Z,47.20
2018-09-24T23:12:36.834Z,47.10
2018-09-24T23:15:11.530Z,47.30
2018-09-24T23:17:46.004Z,47.10
2018-09-24T23:20:20.479Z,46.90
2018-09-24T23:22:55.115Z,47.10
2018-09-24T23:25:29.783Z,46.90
2018-09-24T23:28:04.463Z,46.70
2018-09-24T23:30:38.962Z,46.80
2018-09-24T23:33:13.591Z,46.80
2018-09-24T23:35:48.172Z,46.70
2018-09-24T23:38:22.931Z,46.70
2018-09-24T23:40:57.617Z,46.70
2018-09-24T23:43:32.169Z,46.70
2018-09-24T23:46:06.669Z,46.80
2018-09-24T23:48:41.248Z,46.50
2018-09-24T23:51:15.754Z,46.70
2018-09-24T23:53:50.095Z,46.40
2018-09-24T23:56:24.755Z,46.60
2018-09-24T23:58:59.291Z,46.70
